createdAt,value
2022-11-06T00:01:10.350Z,100.00
2022-11-06T00:03:37.093Z,100.00
2022-11-06T00:06:30.645Z,100.00
2022-11-06T00:08:59.800Z,100.00
2022-11-06T00:11:26.688Z,100.00
2022-11-06T00:13:53.950Z,100.00
2022-11-06T00:16:21.185Z,100.00
2022-11-06T00:18:48.213Z,100.00
2022-11-06T00:21:17.898Z,100.00
2022-11-06T00:23:45.513Z,100.00
2022-11-06T00:26:17.929Z,100.00
2022-11-06T00:28:44.781Z,100.00
2022-11-06T00:31:14.428Z,100.00
2022-11-06T00:33:41.546Z,100.00
2022-11-06T00:36:13.333Z,100.00
2022-11-06T00:38:39.978Z,100.00
2022-11-06T00:41:10.088Z,100.00
2022-11-06T00:43:37.308Z,100.00
2022-11-06T00:46:05.949Z,100.00
2022-11-06T00:48:33.673Z,100.00
2022-11-06T00:51:05.289Z,100.00
2022-11-06T00:53:31.990Z,100.00
2022-11-06T00:56:10.821Z,100.00
2022-11-06T00:58:37.433Z,100.00
2022-11-06T01:01:16.138Z,100.00
2022-11-06T01:03:45.346Z,100.00
2022-11-06T01:06:23.096Z,100.00
2022-11-06T01:08:51.583Z,100.00
2022-11-06T01:11:19.680Z,100.00
2022-11-06T01:13:49.136Z,100.00
2022-11-06T01:16:16.211Z,100.00
2022-11-06T01:18:44.535Z,100.00
2022-11-06T01:21:26.277Z,100.00
2022-11-06T01:23:55.085Z,100.00
2022-11-06T01:26:37.199Z,100.00
2022-11-06T01:29:05.886Z,100.00
2022-11-06T01:31:34.140Z,100.00
2022-11-06T01:34:02.258Z,100.00
2022-11-06T01:36:30.127Z,100.00
2022-11-06T01:38:59.641Z,100.00
2022-11-06T01:41:32.577Z,100.00
2022-11-06T01:44:06.168Z,100.00
2022-11-06T01:46:36.522Z,100.00
2022-11-06T01:49:11.621Z,100.00
2022-11-06T01:51:52.006Z,100.00
2022-11-06T01:54:40.014Z,100.00
2022-11-06T01:57:07.663Z,100.00
2022-11-06T01:59:37.143Z,100.00
2022-11-06T02:02:04.589Z,100.00
2022-11-06T02:04:37.784Z,100.00
2022-11-06T02:07:05.605Z,100.00
2022-11-06T02:09:34.206Z,100.00
2022-11-06T02:12:12.302Z,100.00
2022-11-06T02:15:05.961Z,100.00
2022-11-06T02:17:32.548Z,100.00
2022-11-06T02:20:03.335Z,99.65
2022-11-06T02:23:05.890Z,98.12
2022-11-06T02:25:45.130Z,96.59
2022-11-06T02:28:38.049Z,95.16
2022-11-06T02:31:11.359Z,94.29
2022-11-06T02:33:46.390Z,93.94
2022-11-06T02:36:19.671Z,93.45
2022-11-06T02:39:09.890Z,93.34
2022-11-06T02:41:40.985Z,93.35
2022-11-06T02:44:11.990Z,93.23
2022-11-06T02:47:01.525Z,93.30
2022-11-06T02:50:03.960Z,93.70
2022-11-06T02:53:01.698Z,92.91
2022-11-06T02:55:42.304Z,92.65
2022-11-06T02:58:16.536Z,91.98
2022-11-06T03:00:50.667Z,91.95
2022-11-06T03:03:25.450Z,92.04
2022-11-06T03:05:58.894Z,91.37
2022-11-06T03:08:44.555Z,90.17
2022-11-06T03:11:22.453Z,89.72
2022-11-06T03:14:07.715Z,89.82
2022-11-06T03:17:11.285Z,90.20
2022-11-06T03:20:06.206Z,91.21
2022-11-06T03:22:40.437Z,91.85
2022-11-06T03:25:20.341Z,92.17
2022-11-06T03:27:58.400Z,94.20
2022-11-06T03:30:25.131Z,96.26
2022-11-06T03:33:02.525Z,99.10
2022-11-06T03:35:45.972Z,100.00
2022-11-06T03:38:20.554Z,100.00
2022-11-06T03:40:53.800Z,100.00
2022-11-06T03:43:26.785Z,100.00
2022-11-06T03:45:56.013Z,100.00
2022-11-06T03:48:42.472Z,100.00
2022-11-06T03:51:22.385Z,100.00
2022-11-06T03:53:53.755Z,100.00
2022-11-06T03:56:35.507Z,100.00
2022-11-06T03:59:06.180Z,100.00
2022-11-06T04:01:37.512Z,100.00
2022-11-06T04:04:17.848Z,100.00
2022-11-06T04:06:51.552Z,100.00
2022-11-06T04:09:38.930Z,100.00
2022-11-06T04:12:26.756Z,100.00
2022-11-06T04:14:56.478Z,100.00
2022-11-06T04:17:26.462Z,100.00
2022-11-06T04:19:57.606Z,100.00
2022-11-06T04:22:26.819Z,100.00
2022-11-06T04:25:22.613Z,100.00
2022-11-06T04:28:08.130Z,100.00
2022-11-06T04:30:51.901Z,100.00
2022-11-06T04:33:29.051Z,100.00
2022-11-06T04:36:02.183Z,100.00
2022-11-06T04:38:52.792Z,100.00
2022-11-06T04:41:36.486Z,100.00
2022-11-06T04:44:17.730Z,100.00
2022-11-06T04:46:58.358Z,100.00
2022-11-06T04:49:26.988Z,100.00
2022-11-06T04:51:54.213Z,100.00
2022-11-06T04:54:21.295Z,100.00
2022-11-06T04:56:48.070Z,100.00
2022-11-06T04:59:16.634Z,100.00
2022-11-06T05:01:44.252Z,100.00
2022-11-06T05:04:12.115Z,100.00
2022-11-06T05:06:38.730Z,100.00
2022-11-06T05:09:05.533Z,100.00
2022-11-06T05:11:32.150Z,100.00
2022-11-06T05:13:58.697Z,100.00
2022-11-06T05:16:25.381Z,100.00
2022-11-06T05:18:51.905Z,100.00
2022-11-06T05:21:37.336Z,100.00
2022-11-06T05:24:04.278Z,100.00
2022-11-06T05:26:30.872Z,100.00
2022-11-06T05:28:57.549Z,100.00
2022-11-06T05:31:24.964Z,100.00
2022-11-06T05:33:51.573Z,100.00
2022-11-06T05:36:18.284Z,100.00
2022-11-06T05:38:44.830Z,100.00
2022-11-06T05:41:11.476Z,100.00
2022-11-06T05:43:38.214Z,100.00
2022-11-06T05:46:04.972Z,100.00
2022-11-06T05:48:31.710Z,100.00
2022-11-06T05:51:03.252Z,100.00
2022-11-06T05:53:31.527Z,100.00
2022-11-06T05:55:58.402Z,100.00
2022-11-06T05:58:25.729Z,100.00
2022-11-06T06:00:52.676Z,100.00
2022-11-06T06:03:21.211Z,100.00
2022-11-06T06:05:48.293Z,100.00
2022-11-06T06:08:15.311Z,100.00
2022-11-06T06:10:43.361Z,100.00
2022-11-06T06:13:10.457Z,100.00
2022-11-06T06:15:41.911Z,100.00
2022-11-06T06:18:09.699Z,100.00
2022-11-06T06:20:36.850Z,100.00
2022-11-06T06:23:03.949Z,100.00
2022-11-06T06:25:31.112Z,100.00
2022-11-06T06:27:58.304Z,100.00
2022-11-06T06:30:25.715Z,100.00
2022-11-06T06:32:53.461Z,100.00
2022-11-06T06:35:20.509Z,100.00
2022-11-06T06:37:56.014Z,100.00
2022-11-06T06:40:23.296Z,100.00
2022-11-06T06:42:50.031Z,100.00
2022-11-06T06:45:17.145Z,100.00
2022-11-06T06:47:43.942Z,100.00
2022-11-06T06:50:10.815Z,100.00
2022-11-06T06:52:37.460Z,100.00
2022-11-06T06:55:05.839Z,100.00
2022-11-06T06:57:32.552Z,100.00
2022-11-06T06:59:59.106Z,100.00
2022-11-06T07:02:25.795Z,100.00
2022-11-06T07:04:52.396Z,100.00
2022-11-06T07:07:18.991Z,100.00
2022-11-06T07:09:45.637Z,100.00
2022-11-06T07:12:12.230Z,100.00
2022-11-06T07:14:38.959Z,100.00
2022-11-06T07:17:05.548Z,100.00
2022-11-06T07:19:32.155Z,100.00
2022-11-06T07:21:58.739Z,100.00
2022-11-06T07:24:25.256Z,100.00
2022-11-06T07:26:51.944Z,100.00
2022-11-06T07:29:18.507Z,100.00
2022-11-06T07:31:45.082Z,100.00
2022-11-06T07:34:11.749Z,100.00
2022-11-06T07:36:38.496Z,100.00
2022-11-06T07:39:05.056Z,100.00
2022-11-06T07:41:31.646Z,100.00
2022-11-06T07:43:58.306Z,100.00
2022-11-06T07:46:25.053Z,100.00
2022-11-06T07:48:51.759Z,100.00
2022-11-06T07:51:18.360Z,100.00
2022-11-06T07:53:44.982Z,100.00
2022-11-06T07:56:11.621Z,100.00
2022-11-06T07:58:38.844Z,100.00
2022-11-06T08:01:06.141Z,100.00
2022-11-06T08:03:34.406Z,100.00
2022-11-06T08:06:05.294Z,100.00
2022-11-06T08:08:31.917Z,100.00
2022-11-06T08:11:03.198Z,100.00
2022-11-06T08:13:29.905Z,100.00
2022-11-06T08:15:56.454Z,100.00
2022-11-06T08:18:22.983Z,100.00
2022-11-06T08:20:52.951Z,100.00
2022-11-06T08:23:19.868Z,100.00
2022-11-06T08:25:46.389Z,100.00
2022-11-06T08:28:13.212Z,100.00
2022-11-06T08:30:39.971Z,100.00
2022-11-06T08:33:08.186Z,100.00
2022-11-06T08:35:35.494Z,100.00
2022-11-06T08:38:02.681Z,100.00
2022-11-06T08:40:31.232Z,100.00
2022-11-06T08:43:03.338Z,100.00
2022-11-06T08:45:30.444Z,100.00
2022-11-06T08:48:02.389Z,100.00
2022-11-06T08:50:30.165Z,100.00
2022-11-06T08:52:57.992Z,100.00
2022-11-06T08:55:24.605Z,100.00
2022-11-06T08:57:51.303Z,100.00
2022-11-06T09:00:18.020Z,100.00
2022-11-06T09:02:44.595Z,100.00
2022-11-06T09:05:11.257Z,100.00
2022-11-06T09:07:37.821Z,100.00
2022-11-06T09:10:04.897Z,100.00
2022-11-06T09:12:31.465Z,100.00
2022-11-06T09:14:58.071Z,100.00
2022-11-06T09:17:24.683Z,100.00
2022-11-06T09:19:51.912Z,100.00
2022-11-06T09:22:19.387Z,100.00
2022-11-06T09:25:03.789Z,100.00
2022-11-06T09:27:32.047Z,100.00
2022-11-06T09:29:58.673Z,100.00
2022-11-06T09:32:25.294Z,100.00
2022-11-06T09:34:52.054Z,100.00
2022-11-06T09:37:18.670Z,100.00
2022-11-06T09:39:45.198Z,100.00
2022-11-06T09:42:38.398Z,100.00
2022-11-06T09:45:22.818Z,100.00
2022-11-06T09:48:09.603Z,100.00
2022-11-06T09:50:41.837Z,100.00
2022-11-06T09:53:19.656Z,100.00
2022-11-06T09:55:48.676Z,100.00
2022-11-06T09:58:30.737Z,100.00
2022-11-06T10:01:00.509Z,100.00
2022-11-06T10:03:39.963Z,100.00
2022-11-06T10:06:06.610Z,100.00
2022-11-06T10:08:34.077Z,100.00
2022-11-06T10:11:15.537Z,100.00
2022-11-06T10:14:03.651Z,100.00
2022-11-06T10:16:56.134Z,100.00
2022-11-06T10:19:37.185Z,100.00
2022-11-06T10:22:37.157Z,100.00
2022-11-06T10:25:22.179Z,100.00
2022-11-06T10:28:00.849Z,100.00
2022-11-06T10:30:37.168Z,100.00
2022-11-06T10:33:10.442Z,100.00
2022-11-06T10:35:46.890Z,100.00
2022-11-06T10:38:16.060Z,100.00
2022-11-06T10:40:49.305Z,100.00
2022-11-06T10:43:36.012Z,100.00
2022-11-06T10:46:23.952Z,100.00
2022-11-06T10:48:55.735Z,100.00
2022-11-06T10:51:28.028Z,100.00
2022-11-06T10:53:57.631Z,100.00
2022-11-06T10:57:10.326Z,100.00
2022-11-06T10:59:37.072Z,100.00
2022-11-06T11:02:03.909Z,100.00
2022-11-06T11:04:32.549Z,100.00
2022-11-06T11:07:18.817Z,100.00
2022-11-06T11:09:49.636Z,100.00
2022-11-06T11:12:22.813Z,100.00
2022-11-06T11:15:12.180Z,100.00
2022-11-06T11:17:39.947Z,100.00
2022-11-06T11:20:33.449Z,100.00
2022-11-06T11:23:22.948Z,100.00
2022-11-06T11:25:51.141Z,100.00
2022-11-06T11:28:33.460Z,100.00
2022-11-06T11:31:13.224Z,100.00
2022-11-06T11:33:41.781Z,100.00
2022-11-06T11:36:10.284Z,100.00
2022-11-06T11:38:41.483Z,100.00
2022-11-06T11:41:28.317Z,100.00
2022-11-06T11:44:17.153Z,100.00
2022-11-06T11:46:54.913Z,100.00
2022-11-06T11:49:33.366Z,100.00
2022-11-06T11:52:03.043Z,100.00
2022-11-06T11:54:35.846Z,100.00
2022-11-06T11:57:17.317Z,100.00
2022-11-06T11:59:51.838Z,100.00
2022-11-06T12:02:30.036Z,100.00
2022-11-06T12:05:02.290Z,100.00
2022-11-06T12:07:46.193Z,100.00
2022-11-06T12:10:18.972Z,100.00
2022-11-06T12:12:51.340Z,100.00
2022-11-06T12:15:19.560Z,100.00
2022-11-06T12:18:01.122Z,100.00
2022-11-06T12:20:55.102Z,100.00
2022-11-06T12:23:32.359Z,100.00
2022-11-06T12:26:26.421Z,100.00
2022-11-06T12:29:03.693Z,100.00
2022-11-06T12:31:39.615Z,100.00
2022-11-06T12:34:17.700Z,100.00
2022-11-06T12:36:53.113Z,100.00
2022-11-06T12:39:27.825Z,100.00
2022-11-06T12:41:56.775Z,100.00
2022-11-06T12:44:23.516Z,100.00
2022-11-06T12:47:05.377Z,100.00
2022-11-06T12:49:50.431Z,100.00
2022-11-06T12:53:05.000Z,100.00
2022-11-06T12:56:07.626Z,100.00
2022-11-06T12:59:05.142Z,100.00
2022-11-06T13:01:42.254Z,100.00
2022-11-06T13:04:50.128Z,100.00
2022-11-06T13:07:34.812Z,100.00
2022-11-06T13:10:07.762Z,100.00
2022-11-06T13:12:37.135Z,100.00
2022-11-06T13:15:48.132Z,100.00
2022-11-06T13:18:43.165Z,100.00
2022-11-06T13:21:29.701Z,100.00
2022-11-06T13:24:03.278Z,100.00
2022-11-06T13:26:42.469Z,100.00
2022-11-06T13:29:15.669Z,100.00
2022-11-06T13:31:48.508Z,100.00
2022-11-06T13:34:38.156Z,100.00
2022-11-06T13:37:37.479Z,100.00
2022-11-06T13:40:20.544Z,100.00
2022-11-06T13:42:54.300Z,100.00
2022-11-06T13:45:23.312Z,100.00
2022-11-06T13:48:22.847Z,100.00
2022-11-06T13:50:49.456Z,100.00
2022-11-06T13:53:37.046Z,100.00
2022-11-06T13:56:24.718Z,100.00
2022-11-06T13:59:02.106Z,100.00
2022-11-06T14:01:56.219Z,100.00
2022-11-06T14:05:10.207Z,100.00
2022-11-06T14:07:39.195Z,100.00
2022-11-06T14:10:06.322Z,100.00
2022-11-06T14:12:32.887Z,100.00
2022-11-06T14:15:29.334Z,100.00
2022-11-06T14:17:58.690Z,100.00
2022-11-06T14:20:37.313Z,100.00
2022-11-06T14:23:29.057Z,100.00
2022-11-06T14:26:12.919Z,100.00
2022-11-06T14:28:41.921Z,100.00
2022-11-06T14:31:12.676Z,100.00
2022-11-06T14:33:40.661Z,100.00
2022-11-06T14:36:14.317Z,100.00
2022-11-06T14:38:42.646Z,100.00
2022-11-06T14:41:34.078Z,100.00
2022-11-06T14:44:05.558Z,100.00
2022-11-06T14:46:32.921Z,100.00
2022-11-06T14:49:18.643Z,100.00
2022-11-06T14:52:06.951Z,100.00
2022-11-06T14:54:37.699Z,100.00
2022-11-06T14:57:04.795Z,100.00
2022-11-06T14:59:35.249Z,100.00
2022-11-06T15:02:26.092Z,100.00
2022-11-06T15:05:03.938Z,100.00
2022-11-06T15:08:04.073Z,100.00
2022-11-06T15:10:42.981Z,100.00
2022-11-06T15:13:18.460Z,100.00
2022-11-06T15:15:47.686Z,100.00
2022-11-06T15:18:22.880Z,100.00
2022-11-06T15:20:58.641Z,100.00
2022-11-06T15:23:34.499Z,100.00
2022-11-06T15:26:03.011Z,100.00
2022-11-06T15:28:46.801Z,100.00
2022-11-06T15:31:17.723Z,100.00
2022-11-06T15:34:37.472Z,100.00
2022-11-06T15:37:11.960Z,100.00
2022-11-06T15:39:41.158Z,100.00
2022-11-06T15:42:13.444Z,100.00
2022-11-06T15:44:41.897Z,100.00
2022-11-06T15:47:29.709Z,100.00
2022-11-06T15:50:12.641Z,100.00
2022-11-06T15:52:40.252Z,100.00
2022-11-06T15:55:12.517Z,100.00
2022-11-06T15:57:39.106Z,100.00
2022-11-06T16:00:25.241Z,100.00
2022-11-06T16:02:59.036Z,100.00
2022-11-06T16:05:28.587Z,100.00
2022-11-06T16:07:57.513Z,100.00
2022-11-06T16:10:24.867Z,100.00
2022-11-06T16:12:53.685Z,100.00
2022-11-06T16:15:42.094Z,100.00
2022-11-06T16:18:16.197Z,100.00
2022-11-06T16:20:49.284Z,100.00
2022-11-06T16:23:20.173Z,100.00
2022-11-06T16:25:47.100Z,100.00
2022-11-06T16:28:24.273Z,100.00
2022-11-06T16:30:52.087Z,100.00
2022-11-06T16:33:23.498Z,100.00
2022-11-06T16:35:55.284Z,100.00
2022-11-06T16:38:40.864Z,100.00
2022-11-06T16:41:09.477Z,100.00
2022-11-06T16:43:36.259Z,100.00
2022-11-06T16:46:24.111Z,100.00
2022-11-06T16:48:50.653Z,100.00
2022-11-06T16:51:32.708Z,100.00
2022-11-06T16:54:01.684Z,100.00
2022-11-06T16:56:32.921Z,100.00
2022-11-06T16:59:09.087Z,100.00
2022-11-06T17:01:46.995Z,100.00
2022-11-06T17:04:22.722Z,100.00
2022-11-06T17:06:51.179Z,100.00
2022-11-06T17:09:28.069Z,100.00
2022-11-06T17:11:55.989Z,100.00
2022-11-06T17:14:24.138Z,100.00
2022-11-06T17:16:54.161Z,100.00
2022-11-06T17:19:21.759Z,100.00
2022-11-06T17:21:49.643Z,100.00
2022-11-06T17:24:45.845Z,100.00
2022-11-06T17:27:03.441Z,100.00
2022-11-06T17:29:30.049Z,100.00
2022-11-06T17:31:56.732Z,100.00
2022-11-06T17:34:23.330Z,100.00
2022-11-06T17:36:50.204Z,100.00
2022-11-06T17:39:16.916Z,100.00
2022-11-06T17:41:43.546Z,100.00
2022-11-06T17:44:15.555Z,100.00
2022-11-06T17:46:45.136Z,100.00
2022-11-06T17:49:17.639Z,100.00
2022-11-06T17:52:00.542Z,100.00
2022-11-06T17:54:32.112Z,100.00
2022-11-06T17:57:03.471Z,100.00
2022-11-06T17:59:31.064Z,100.00
2022-11-06T18:01:57.848Z,100.00
2022-11-06T18:04:26.789Z,100.00
2022-11-06T18:06:54.120Z,100.00
2022-11-06T18:09:23.571Z,100.00
2022-11-06T18:11:51.702Z,100.00
2022-11-06T18:14:19.466Z,100.00
2022-11-06T18:16:46.440Z,100.00
2022-11-06T18:19:16.875Z,100.00
2022-11-06T18:21:43.679Z,100.00
2022-11-06T18:24:10.448Z,100.00
2022-11-06T18:26:40.251Z,100.00
2022-11-06T18:29:07.725Z,100.00
2022-11-06T18:31:35.290Z,100.00
2022-11-06T18:34:02.984Z,100.00
2022-11-06T18:36:29.829Z,100.00
2022-11-06T18:38:56.386Z,100.00
2022-11-06T18:41:23.415Z,100.00
2022-11-06T18:43:54.813Z,100.00
2022-11-06T18:46:21.482Z,100.00
2022-11-06T18:48:48.189Z,100.00
2022-11-06T18:51:34.033Z,100.00
2022-11-06T18:54:05.216Z,100.00
2022-11-06T18:56:32.387Z,100.00
2022-11-06T18:58:59.421Z,100.00
2022-11-06T19:01:26.386Z,100.00
2022-11-06T19:03:53.499Z,100.00
2022-11-06T19:06:21.879Z,100.00
2022-11-06T19:08:49.152Z,100.00
2022-11-06T19:11:17.976Z,100.00
2022-11-06T19:13:48.244Z,100.00
2022-11-06T19:16:18.610Z,100.00
2022-11-06T19:18:45.609Z,100.00
2022-11-06T19:21:12.884Z,100.00
2022-11-06T19:23:41.932Z,100.00
2022-11-06T19:29:00.421Z,100.00
2022-11-06T19:31:30.488Z,100.00
2022-11-06T19:34:01.797Z,100.00
2022-11-06T19:36:29.151Z,100.00
2022-11-06T19:38:58.569Z,100.00
2022-11-06T19:41:26.602Z,100.00
2022-11-06T19:43:53.222Z,100.00
2022-11-06T19:46:25.730Z,100.00
2022-11-06T19:48:54.472Z,100.00
2022-11-06T19:51:21.107Z,100.00
2022-11-06T19:53:52.750Z,100.00
2022-11-06T19:56:19.677Z,100.00
2022-11-06T19:58:47.730Z,100.00
2022-11-06T20:01:14.647Z,100.00
2022-11-06T20:03:42.159Z,100.00
2022-11-06T20:06:09.252Z,100.00
2022-11-06T20:08:39.466Z,100.00
2022-11-06T20:11:08.995Z,100.00
2022-11-06T20:13:39.253Z,100.00
2022-11-06T20:16:08.073Z,100.00
2022-11-06T20:18:38.049Z,100.00
2022-11-06T20:21:07.065Z,100.00
2022-11-06T20:23:34.803Z,100.00
2022-11-06T20:26:01.790Z,100.00
2022-11-06T20:28:28.846Z,100.00
2022-11-06T20:30:56.495Z,100.00
2022-11-06T20:33:23.458Z,100.00
2022-11-06T20:35:50.098Z,100.00
2022-11-06T20:38:17.843Z,100.00
2022-11-06T20:40:45.210Z,100.00
2022-11-06T20:43:12.209Z,100.00
2022-11-06T20:45:39.901Z,100.00
2022-11-06T20:48:08.258Z,100.00
2022-11-06T20:50:35.149Z,100.00
2022-11-06T20:53:01.811Z,100.00
2022-11-06T20:55:29.248Z,100.00
2022-11-06T20:57:55.874Z,100.00
2022-11-06T21:00:22.790Z,100.00
2022-11-06T21:02:49.467Z,100.00
2022-11-06T21:05:16.190Z,100.00
2022-11-06T21:07:42.858Z,100.00
2022-11-06T21:10:11.044Z,100.00
2022-11-06T21:12:38.325Z,100.00
2022-11-06T21:15:05.451Z,100.00
2022-11-06T21:17:34.115Z,100.00
2022-11-06T21:20:00.801Z,100.00
2022-11-06T21:22:27.419Z,100.00
2022-11-06T21:24:55.228Z,100.00
2022-11-06T21:27:21.774Z,100.00
2022-11-06T21:29:48.361Z,100.00
2022-11-06T21:32:15.010Z,100.00
2022-11-06T21:34:41.627Z,100.00
2022-11-06T21:37:08.188Z,100.00
2022-11-06T21:39:36.576Z,100.00
2022-11-06T21:42:05.244Z,100.00
2022-11-06T21:44:32.359Z,100.00
2022-11-06T21:46:59.060Z,100.00
2022-11-06T21:49:25.742Z,100.00
2022-11-06T21:51:52.341Z,100.00
2022-11-06T21:54:37.521Z,100.00
2022-11-06T21:57:04.152Z,100.00
2022-11-06T21:59:30.823Z,100.00
2022-11-06T22:01:57.980Z,100.00
2022-11-06T22:04:24.695Z,100.00
2022-11-06T22:06:52.498Z,100.00
2022-11-06T22:09:24.429Z,100.00
2022-11-06T22:11:52.228Z,100.00
2022-11-06T22:14:18.765Z,100.00
2022-11-06T22:16:47.010Z,100.00
2022-11-06T22:19:15.988Z,100.00
2022-11-06T22:21:42.606Z,100.00
2022-11-06T22:24:11.670Z,100.00
2022-11-06T22:26:38.239Z,100.00
2022-11-06T22:29:10.782Z,100.00
2022-11-06T22:31:37.480Z,100.00
2022-11-06T22:34:04.579Z,100.00
2022-11-06T22:36:31.320Z,100.00
2022-11-06T22:38:59.709Z,100.00
2022-11-06T22:41:26.330Z,100.00
2022-11-06T22:43:58.814Z,100.00
2022-11-06T22:46:26.456Z,100.00
2022-11-06T22:48:53.838Z,100.00
2022-11-06T22:51:23.485Z,100.00
2022-11-06T22:53:50.884Z,100.00
2022-11-06T22:56:18.810Z,100.00
2022-11-06T22:58:45.486Z,100.00
2022-11-06T23:01:12.452Z,100.00
2022-11-06T23:03:40.880Z,100.00
2022-11-06T23:06:09.893Z,100.00
2022-11-06T23:08:42.924Z,100.00
2022-11-06T23:11:14.563Z,100.00
2022-11-06T23:13:41.332Z,100.00
2022-11-06T23:16:13.478Z,100.00
2022-11-06T23:18:40.030Z,100.00
2022-11-06T23:21:18.480Z,100.00
2022-11-06T23:23:45.623Z,100.00
2022-11-06T23:26:17.667Z,100.00
2022-11-06T23:28:45.543Z,100.00
2022-11-06T23:31:15.127Z,100.00
2022-11-06T23:33:42.837Z,100.00
2022-11-06T23:36:12.505Z,100.00
2022-11-06T23:38:39.831Z,100.00
2022-11-06T23:41:33.540Z,100.00
2022-11-06T23:44:00.754Z,100.00
2022-11-06T23:46:33.121Z,100.00
2022-11-06T23:49:00.283Z,100.00
2022-11-06T23:51:27.802Z,100.00
2022-11-06T23:53:54.806Z,100.00
2022-11-06T23:56:21.651Z,100.00
2022-11-06T23:58:48.361Z,100.00
